Terminal Aerodrome Forecast
Issued by NWS

Home | Current Version | Previous Version | Text Only | Print | Product List | Glossary On
Versions: 1 2 3 4 5 6 7 8 9 10 11 12 13 14 15 16 17 18 19 20 21 22 23 24 25 26 27 28
000
FTUS43 KDLH 280400 AAA
TAFHYR
TAF AMD
KHYR 280437Z 2805/2824 27004KT P6SM SCT025 OVC050
     FM280800 29007KT P6SM -SN SCT020 OVC030
      TEMPO 2810/2814 5SM -SN OVC015
     FM281600 33012KT P6SM SCT030=

USA.gov is the U.S. government's official web portal to all federal, state and local government web resources and services.